• Join FlightAware (Why Join?)
  • Login
  • US Flag 
10:41AM EST


 

Airport Tracker/Info


-or-


 

Live Flight TrackerFlight Track Log ✈ SWA2520 ✈ 29-Apr-2013 ✈ KSJC - KLAX

Flight Track Log - Related Links

Times and Time Zones

All times are in EDT time to prevent confusion due to time zone crossing. See the SWA2520 flight status page for this flight to view local times or setup timezone preferences in your user account.

Time Position Orientation Groundspeed Altitude Reporting Facility
EDT Latitude Longitude Course Direction KTS MPH feet Rate Location/Type
07:43PM 37.3833 -121.9500 345° North 175 201 1,900  Level Northern Cal TRACON
07:44PM 37.4333 -121.9667 345° North 230 265 4,800 1,620 Climbing Northern Cal TRACON
07:45PM 37.4333 -121.9000 90° East 247 284 5,200 1,560 Climbing Northern Cal TRACON
07:46PM 37.3833 -121.8500 142° Southeast 278 320 8,000 3,000 Climbing Northern Cal TRACON
07:47PM 37.3433 -121.8108 142° Southeast 287 330 10,300 3,240 Climbing Oakland Center
07:48PM 37.2733 -121.7300 137° Southeast 337 388 13,600 3,480 Climbing Oakland Center
07:49PM 37.1983 -121.6394 136° Southeast 368 423 17,500 3,960 Climbing Oakland Center
07:50PM 37.1025 -121.5294 138° Southeast 389 448 21,700 3,240 Climbing Oakland Center
07:51PM 37.0297 -121.4522 140° Southeast 406 467 24,200 2,820 Climbing Oakland Center
07:52PM 36.9236 -121.3356 139° Southeast 423 487 27,600 2,760 Climbing Oakland Center
07:53PM 36.8328 -121.2350 138° Southeast 436 502 29,900 1,920 Climbing Oakland Center
07:54PM 36.7481 -121.1475 140° Southeast 450 518 31,600 2,340 Climbing Oakland Center
07:55PM 36.6328 -121.0217 139° Southeast 458 527 34,700 2,580 Climbing Oakland Center
07:56PM 36.5400 -120.9206 139° Southeast 446 513 36,900 1,800 Climbing Oakland Center
07:57PM 36.4472 -120.8225 140° Southeast 439 505 38,400 1,200 Climbing Oakland Center
07:58PM 36.3522 -120.7200 139° Southeast 449 517 39,400 1,200 Climbing Oakland Center
07:59PM 36.2569 -120.6181 139° Southeast 452 520 40,900 780 Climbing Oakland Center
08:00PM 36.1633 -120.5211 140° Southeast 440 506 41,000  Climbing Oakland Center
08:02PM 35.9589 -120.3044 139° Southeast 438 504 41,000  Level Los Angeles Center
08:03PM 35.8661 -120.2069 140° Southeast 437 503 41,000  Level Los Angeles Center
08:04PM 35.7917 -120.1283 139° Southeast 437 503 41,000  Level Oakland Center
08:05PM 35.6983 -120.0314 140° Southeast 436 502 41,000 -360 Level Oakland Center
08:06PM 35.6022 -119.9378 142° Southeast 437 503 40,300 -900 Descending Oakland Center
08:07PM 35.4808 -119.8350 145° Southeast 437 503 39,200 -1,080 Descending Oakland Center
08:08PM 35.3811 -119.7481 145° Southeast 436 502 38,200 -960 Descending Oakland Center
08:08PM 35.3614 -119.7319 146° Southeast 437 503 38,000 -900 Descending Los Angeles Center
08:09PM 35.2611 -119.6458 145° Southeast 438 504 37,100 -960 Descending Los Angeles Center
08:11PM 35.1592 -119.5581 145° Southeast 444 511 36,100 -1,020 Descending Los Angeles Center
08:12PM 35.0567 -119.4708 145° Southeast 449 517 35,000 -2,340 Descending Los Angeles Center
08:13PM 34.9319 -119.3653 145° Southeast 453 521 31,300 -3,060 Descending Los Angeles Center
08:14PM 34.8306 -119.2783 145° Southeast 448 516 28,700 -2,460 Descending Los Angeles Center
08:15PM 34.7331 -119.1953 145° Southeast 431 496 26,200 -2,520 Descending Los Angeles Center
08:16PM 34.6281 -119.1083 146° Southeast 416 479 23,600 -2,460 Descending Los Angeles Center
08:17PM 34.5358 -119.0300 145° Southeast 401 461 21,200 -2,280 Descending Los Angeles Center
08:18PM 34.4464 -118.9578 146° Southeast 383 441 18,900 -2,280 Descending Los Angeles Center
08:19PM 34.3608 -118.8875 146° Southeast 373 429 16,500 -2,280 Descending Los Angeles Center
08:20PM 34.2653 -118.8483 161° South 363 418 14,200 -2,220 Descending Los Angeles Center
08:21PM 34.1711 -118.8131 163° South 355 409 12,000 -1,500 Descending Los Angeles Center
08:22PM 34.0636 -118.7733 163° South 333 383 11,100 -780 Descending Los Angeles Center
08:23PM 34.0314 -118.6928 116° Southeast 276 318 10,400 -960 Descending Los Angeles Center
08:24PM 34.0239 -118.6047 96° East 265 305 9,200 -1,260 Descending Los Angeles Center
08:25PM 34.0150 -118.5106 96° East 261 300 7,800 -1,260 Descending Los Angeles Center
08:26PM 34.0122 -118.4328 92° East 256 295 6,600 -1,380 Descending Los Angeles Center
08:27PM 34.0225 -118.3464 82° East 257 296 5,000 -1,440 Descending Los Angeles Center
08:28PM 34.0233 -118.2647 89° East 252 290 3,700 -1,500 Descending Los Angeles Center
08:29PM 33.9672 -118.2875 199° South 222 255 2,000 -1,320 Descending Los Angeles Center
08:30PM 33.9575 -118.3433 258° West 192 221 1,100 -840 Descending Los Angeles Center
08:31PM 33.9553 -118.3842 266° West 149 171 400 -480 Descending Los Angeles Center
08:32PM 33.9494 -118.4222 260° West 140 161 200 -240 Descending Los Angeles Center
08:34PM 33.9425 -118.4081 270° West  Level Estimated